Aérodrome :
LOGIN :

S'inscrire | Disclaimer

   EN    FR    IT 

 










Légende :    VFR   VFR Marginal   IFR   IFR Intensif   IFR Très Intensif
Visi : 
Plafond : 
>= 8 km
>= 3000ft
5 à 8 km
1000 à 3000 ft
1500m à 5 km
500 à 1000 ft
800 à 1500m
200 à 500 ft
< 800m
< 200 ft
Symboles :   Orages  Brouillard  Fortes neiges  Fortes précipitations  Vent > 20 kt
SIGMETs :   Divers  Orages  Givrage  Turbulence  Onde Orograph.  Cendres Volcan.






- Altitude de l'aérodrome : 75 ft
- Code IATA : YEO


EGDY - RNAS Yeovilton

DERNIER METAR :
  • 200750Z 21004KT 8000 -RA SCT050 OVC070 11/10 Q1019 TEMPO 6000 RA RMK BLU TEMPO WHT

METARs EXPIRÉS :
  • 200720Z 21003KT 9000 -RA SCT050 OVC070 11/09 Q1019 TEMPO 6000 RA RMK BLU TEMPO WHT
  • 200650Z 22005KT 9000 -RA SCT050 OVC070 11/08 Q1019 TEMPO 6000 RA RMK BLU TEMPO WHT
  • 200550Z 22006KT 9999 -RA FEW020 SCT060 OVC080 11/08 Q1019 BLU

Prévision TAF périmée.



MET'MAP, la Météo Aéronautique d'un coup d'oeil ! - Copyright ORBIFLY Décembre 2007 - Disclaimer

ORBIFLY MET'MAP TEAM :

Programmation & Développement : Alexandra Zaïnal
Sur une idée originale de : Baudouin d'Aumeries
Soutien technique & logistique : Manuel Goepfert
Assistance : Marc-Olivier Méhu

Contact : metmap@orbifly.com




SOURCES & CREDITS :

   NOAA